createdAt,value
2022-11-25T00:01:21.545Z,23.67
2022-11-25T00:03:49.628Z,23.73
2022-11-25T00:06:24.395Z,24.10
2022-11-25T00:08:59.120Z,18.88
2022-11-25T00:11:26.590Z,24.77
2022-11-25T00:13:54.224Z,21.30
2022-11-25T00:16:27.659Z,25.02
2022-11-25T00:18:56.113Z,37.55
2022-11-25T00:21:25.710Z,20.73
2022-11-25T00:24:00.766Z,21.55
2022-11-25T00:26:29.028Z,19.30
2022-11-25T00:28:58.651Z,18.77
2022-11-25T00:31:33.501Z,24.17
2022-11-25T00:34:00.305Z,20.48
2022-11-25T00:36:30.305Z,25.63
2022-11-25T00:39:06.833Z,23.58
2022-11-25T00:41:51.929Z,23.23
2022-11-25T00:44:39.628Z,21.27
2022-11-25T00:47:13.898Z,23.33
2022-11-25T00:49:43.175Z,18.77
2022-11-25T00:52:13.130Z,23.83
2022-11-25T00:54:39.599Z,22.60
2022-11-25T00:57:06.185Z,23.38
2022-11-25T00:59:32.684Z,20.42
2022-11-25T01:01:59.724Z,23.70
2022-11-25T01:04:26.286Z,23.08
2022-11-25T01:06:55.274Z,22.42
2022-11-25T01:09:21.736Z,21.63
2022-11-25T01:11:51.379Z,22.02
2022-11-25T01:14:18.868Z,19.33
2022-11-25T01:16:45.411Z,20.27
2022-11-25T01:19:12.721Z,20.80
2022-11-25T01:21:39.843Z,21.83
2022-11-25T01:24:07.330Z,21.80
2022-11-25T01:26:35.070Z,17.67
2022-11-25T01:29:05.178Z,20.13
2022-11-25T01:31:35.164Z,18.10
2022-11-25T01:34:07.889Z,19.77
2022-11-25T01:36:35.952Z,19.42
2022-11-25T01:39:02.591Z,19.38
2022-11-25T01:41:31.582Z,21.58
2022-11-25T01:44:12.417Z,19.73
2022-11-25T01:46:50.714Z,20.63
2022-11-25T01:49:32.337Z,17.52
2022-11-25T01:52:04.905Z,19.13
2022-11-25T01:54:37.544Z,18.60
2022-11-25T01:57:17.175Z,18.77
2022-11-25T01:59:48.816Z,20.73
2022-11-25T02:02:16.883Z,20.45
2022-11-25T02:04:44.793Z,17.92
2022-11-25T02:07:20.291Z,19.73
2022-11-25T02:09:47.395Z,18.40
2022-11-25T02:12:16.403Z,17.85
2022-11-25T02:14:43.487Z,18.35
2022-11-25T02:17:10.035Z,17.73
2022-11-25T02:19:53.914Z,18.33
2022-11-25T02:22:27.365Z,18.38
2022-11-25T02:25:02.496Z,17.15
2022-11-25T02:27:29.175Z,20.35
2022-11-25T02:29:55.739Z,17.30
2022-11-25T02:32:23.300Z,15.68
2022-11-25T02:34:49.991Z,18.27
2022-11-25T02:37:18.917Z,14.70
2022-11-25T02:39:47.519Z,17.20
2022-11-25T02:42:15.714Z,18.67
2022-11-25T02:44:42.275Z,18.55
2022-11-25T02:47:08.808Z,17.08
2022-11-25T02:49:35.312Z,15.68
2022-11-25T02:52:01.944Z,15.02
2022-11-25T02:54:28.405Z,16.30
2022-11-25T02:56:54.862Z,18.38
2022-11-25T02:59:21.424Z,15.70
2022-11-25T03:01:47.964Z,18.05
2022-11-25T03:04:14.466Z,15.60
2022-11-25T03:06:40.999Z,17.90
2022-11-25T03:09:07.610Z,16.02
2022-11-25T03:11:52.527Z,16.20
2022-11-25T03:14:19.084Z,16.30
2022-11-25T03:16:45.709Z,13.55
2022-11-25T03:19:12.271Z,15.25
2022-11-25T03:21:38.947Z,14.98
2022-11-25T03:24:05.764Z,16.02
2022-11-25T03:26:32.725Z,14.57
2022-11-25T03:28:59.147Z,14.48
2022-11-25T03:31:25.612Z,15.02
2022-11-25T03:33:52.124Z,15.60
2022-11-25T03:36:18.567Z,15.07
2022-11-25T03:38:45.057Z,13.23
2022-11-25T03:41:11.545Z,15.63
2022-11-25T03:43:37.944Z,15.95
2022-11-25T03:46:04.615Z,15.27
2022-11-25T03:48:31.278Z,15.07
2022-11-25T03:50:57.767Z,15.25
2022-11-25T03:53:24.275Z,16.42
2022-11-25T03:55:51.070Z,16.17
2022-11-25T03:58:17.850Z,15.27
2022-11-25T04:00:44.408Z,13.90
2022-11-25T04:03:10.879Z,13.52
2022-11-25T04:05:37.378Z,13.68
2022-11-25T04:08:04.014Z,16.40
2022-11-25T04:10:30.649Z,15.70
2022-11-25T04:12:57.219Z,13.90
2022-11-25T04:15:23.775Z,14.20
2022-11-25T04:17:50.197Z,14.38
2022-11-25T04:20:16.750Z,15.50
2022-11-25T04:22:43.353Z,14.52
2022-11-25T04:25:10.206Z,13.70
2022-11-25T04:27:36.796Z,14.10
2022-11-25T04:30:04.130Z,16.52
2022-11-25T04:32:30.593Z,13.70
2022-11-25T04:34:57.174Z,14.68
2022-11-25T04:37:23.716Z,16.00
2022-11-25T04:39:50.404Z,14.35
2022-11-25T04:42:31.969Z,13.68
2022-11-25T04:45:21.593Z,14.20
2022-11-25T04:47:46.232Z,14.55
2022-11-25T04:50:19.620Z,13.60
2022-11-25T04:52:46.098Z,18.65
2022-11-25T04:55:12.622Z,13.70
2022-11-25T04:57:39.185Z,15.57
2022-11-25T05:00:07.262Z,14.13
2022-11-25T05:02:33.865Z,15.18
2022-11-25T05:05:00.771Z,14.93
2022-11-25T05:07:28.872Z,14.57
2022-11-25T05:09:56.826Z,13.90
2022-11-25T05:12:29.110Z,14.95
2022-11-25T05:14:56.438Z,12.00
2022-11-25T05:17:30.748Z,15.68
2022-11-25T05:19:57.498Z,14.10
2022-11-25T05:22:27.438Z,13.95
2022-11-25T05:24:54.145Z,14.07
2022-11-25T05:27:21.298Z,19.27
2022-11-25T05:29:54.278Z,16.15
2022-11-25T05:32:22.336Z,15.48
2022-11-25T05:34:48.769Z,15.85
2022-11-25T05:37:17.738Z,16.10
2022-11-25T05:39:47.674Z,15.70
2022-11-25T05:42:14.123Z,15.18
2022-11-25T05:44:40.545Z,16.15
2022-11-25T05:47:06.994Z,14.00
2022-11-25T05:49:33.424Z,14.77
2022-11-25T05:52:01.125Z,12.38
2022-11-25T05:54:27.562Z,14.65
2022-11-25T05:56:53.936Z,14.60
2022-11-25T05:59:20.551Z,15.35
2022-11-25T06:01:47.006Z,17.27
2022-11-25T06:04:13.900Z,14.45
2022-11-25T06:06:40.649Z,14.45
2022-11-25T06:09:07.439Z,12.52
2022-11-25T06:11:34.155Z,14.10
2022-11-25T06:14:00.990Z,16.45
2022-11-25T06:16:28.451Z,14.10
2022-11-25T06:18:57.197Z,15.30
2022-11-25T06:21:23.822Z,13.85
2022-11-25T06:23:50.657Z,16.35
2022-11-25T06:26:19.919Z,15.63
2022-11-25T06:28:47.850Z,13.50
2022-11-25T06:31:17.382Z,15.77
2022-11-25T06:33:50.750Z,12.82
2022-11-25T06:36:19.117Z,12.20
2022-11-25T06:38:51.768Z,14.20
2022-11-25T06:41:22.264Z,13.55
2022-11-25T06:43:49.170Z,15.15
2022-11-25T06:46:23.014Z,15.45
2022-11-25T06:48:51.104Z,14.93
2022-11-25T06:51:21.857Z,14.23
2022-11-25T06:53:48.899Z,14.10
2022-11-25T06:56:24.532Z,16.70
2022-11-25T06:58:53.101Z,14.93
2022-11-25T07:01:22.541Z,14.77
2022-11-25T07:03:55.077Z,15.38
2022-11-25T07:06:22.614Z,16.50
2022-11-25T07:08:58.252Z,16.42
2022-11-25T07:11:38.784Z,18.83
2022-11-25T07:14:09.034Z,23.70
2022-11-25T07:16:38.924Z,21.80
2022-11-25T07:19:06.131Z,22.00
2022-11-25T07:21:34.657Z,18.15
2022-11-25T07:24:05.122Z,18.55
2022-11-25T07:26:34.835Z,16.55
2022-11-25T07:29:04.370Z,16.67
2022-11-25T07:31:34.403Z,16.17
2022-11-25T07:34:15.058Z,16.88
2022-11-25T07:36:42.567Z,17.63
2022-11-25T07:39:13.450Z,16.95
2022-11-25T07:41:41.671Z,16.95
2022-11-25T07:44:10.966Z,15.55
2022-11-25T07:46:42.162Z,15.68
2022-11-25T07:52:06.425Z,15.32
2022-11-25T07:54:33.379Z,18.73
2022-11-25T07:57:06.100Z,16.25
2022-11-25T07:59:36.503Z,13.65
2022-11-25T08:02:03.520Z,15.05
2022-11-25T08:04:30.369Z,16.30
2022-11-25T08:06:57.179Z,14.75
2022-11-25T08:09:24.384Z,14.00
2022-11-25T08:11:54.005Z,14.35
2022-11-25T08:14:21.271Z,14.20
2022-11-25T08:16:48.327Z,13.75
2022-11-25T08:19:17.459Z,15.82
2022-11-25T08:21:48.004Z,13.35
2022-11-25T08:24:21.061Z,17.02
2022-11-25T08:26:48.777Z,12.73
2022-11-25T08:29:18.220Z,13.18
2022-11-25T08:31:45.733Z,10.57
2022-11-25T08:34:20.371Z,11.20
2022-11-25T08:36:48.843Z,10.00
2022-11-25T08:42:07.039Z,9.02
2022-11-25T08:44:33.982Z,9.20
2022-11-25T08:47:01.059Z,12.68
2022-11-25T08:49:32.721Z,10.43
2022-11-25T08:52:02.758Z,7.15
2022-11-25T08:54:30.956Z,8.30
2022-11-25T08:57:03.370Z,9.45
2022-11-25T08:59:31.236Z,7.93
2022-11-25T09:02:00.048Z,7.88
2022-11-25T09:04:28.001Z,9.45
2022-11-25T09:06:55.102Z,6.90
2022-11-25T09:09:22.417Z,7.95
2022-11-25T09:11:49.276Z,10.88
2022-11-25T09:14:16.645Z,9.40
2022-11-25T09:16:56.038Z,8.20
2022-11-25T09:19:26.724Z,6.20
2022-11-25T09:21:54.945Z,7.50
2022-11-25T09:24:21.721Z,6.28
2022-11-25T09:26:49.503Z,6.65
2022-11-25T09:29:16.527Z,7.03
2022-11-25T09:31:43.476Z,8.60
2022-11-25T09:34:11.180Z,7.22
2022-11-25T09:36:37.994Z,9.15
2022-11-25T09:39:10.616Z,6.45
2022-11-25T09:42:24.682Z,7.78
2022-11-25T09:45:31.956Z,7.20
2022-11-25T09:48:27.414Z,8.40
2022-11-25T09:51:32.827Z,8.93
2022-11-25T09:54:21.199Z,8.80
2022-11-25T09:56:53.394Z,10.10
2022-11-25T09:59:37.116Z,7.43
2022-11-25T10:02:15.088Z,7.07
2022-11-25T10:04:49.242Z,7.68
2022-11-25T10:07:28.729Z,8.23
2022-11-25T10:09:56.538Z,6.65
2022-11-25T10:12:30.953Z,10.02
2022-11-25T10:15:03.667Z,8.82
2022-11-25T10:17:33.401Z,8.30
2022-11-25T10:20:13.121Z,6.55
2022-11-25T10:22:43.589Z,9.13
2022-11-25T10:25:39.971Z,11.55
2022-11-25T10:28:22.762Z,7.80
2022-11-25T10:31:16.608Z,7.35
2022-11-25T10:33:53.226Z,10.98
2022-11-25T10:36:40.758Z,7.05
2022-11-25T10:39:27.547Z,8.35
2022-11-25T10:42:03.710Z,8.93
2022-11-25T10:44:34.876Z,10.43
2022-11-25T10:47:20.618Z,8.43
2022-11-25T10:50:09.190Z,10.82
2022-11-25T10:52:57.789Z,8.88
2022-11-25T10:55:27.063Z,10.80
2022-11-25T10:57:54.785Z,10.07
2022-11-25T11:00:34.640Z,12.43
2022-11-25T11:03:22.173Z,10.90
2022-11-25T11:05:51.462Z,9.48
2022-11-25T11:08:28.719Z,11.45
2022-11-25T11:11:21.776Z,13.95
2022-11-25T11:13:50.963Z,14.55
2022-11-25T11:16:42.200Z,12.00
2022-11-25T11:19:23.211Z,11.10
2022-11-25T11:21:51.380Z,16.60
2022-11-25T11:24:35.829Z,16.50
2022-11-25T11:27:17.756Z,36.55
2022-11-25T11:29:44.489Z,10.95
2022-11-25T11:32:23.162Z,16.17
2022-11-25T11:34:59.317Z,10.00
2022-11-25T11:37:32.351Z,7.63
2022-11-25T11:40:39.680Z,8.23
2022-11-25T11:43:41.373Z,8.13
2022-11-25T11:46:28.220Z,9.73
2022-11-25T11:49:13.627Z,13.02
2022-11-25T11:52:03.328Z,10.85
2022-11-25T11:55:16.458Z,6.90
2022-11-25T11:58:17.280Z,7.82
2022-11-25T12:01:21.037Z,9.95
2022-11-25T12:06:32.161Z,11.98
2022-11-25T12:09:10.516Z,11.20
2022-11-25T12:11:42.836Z,12.07
2022-11-25T12:14:26.349Z,9.18
2022-11-25T12:17:34.556Z,8.60
2022-11-25T12:20:16.812Z,9.48
2022-11-25T12:22:58.841Z,8.63
2022-11-25T12:25:38.450Z,8.15
2022-11-25T12:28:13.358Z,7.90
2022-11-25T12:31:13.734Z,9.20
2022-11-25T12:34:17.025Z,8.75
2022-11-25T12:36:47.898Z,11.93
2022-11-25T12:42:02.220Z,10.63
2022-11-25T12:44:38.180Z,8.88
2022-11-25T12:47:20.009Z,12.25
2022-11-25T12:49:52.794Z,11.00
2022-11-25T12:52:44.966Z,8.00
2022-11-25T12:55:25.909Z,8.93
2022-11-25T12:58:30.777Z,9.27
2022-11-25T13:01:25.435Z,11.23
2022-11-25T13:07:55.684Z,11.13
2022-11-25T13:10:43.853Z,8.73
2022-11-25T13:13:18.460Z,8.65
2022-11-25T13:15:51.070Z,11.20
2022-11-25T13:18:22.844Z,10.77
2022-11-25T13:21:05.206Z,9.93
2022-11-25T13:23:53.762Z,7.53
2022-11-25T13:26:34.238Z,9.45
2022-11-25T13:29:06.884Z,11.43
2022-11-25T13:31:58.763Z,10.23
2022-11-25T13:34:36.804Z,9.77
2022-11-25T13:37:38.263Z,10.80
2022-11-25T13:40:25.592Z,9.55
2022-11-25T13:42:57.763Z,13.63
2022-11-25T13:45:43.387Z,11.93
2022-11-25T13:48:25.933Z,15.25
2022-11-25T13:51:22.816Z,13.90
2022-11-25T13:54:09.677Z,11.25
2022-11-25T13:56:38.228Z,14.35
2022-11-25T14:01:56.089Z,13.27
2022-11-25T14:10:48.247Z,11.48
2022-11-25T14:13:33.034Z,11.80
2022-11-25T14:16:21.817Z,12.30
2022-11-25T14:22:55.867Z,15.18
2022-11-25T14:25:50.674Z,11.20
2022-11-25T14:28:45.224Z,15.27
2022-11-25T14:31:17.466Z,15.20
2022-11-25T14:34:05.475Z,14.10
2022-11-25T14:36:39.552Z,13.25
2022-11-25T14:39:14.031Z,12.30
2022-11-25T14:42:01.426Z,13.65
2022-11-25T14:47:44.783Z,12.32
2022-11-25T14:50:34.185Z,12.73
2022-11-25T14:53:07.087Z,13.70
2022-11-25T14:55:34.154Z,13.70
2022-11-25T14:58:01.643Z,11.68
2022-11-25T15:00:31.412Z,17.95
2022-11-25T15:03:02.341Z,14.52
2022-11-25T15:08:09.760Z,13.02
2022-11-25T15:10:41.394Z,12.65
2022-11-25T15:13:14.531Z,14.43
2022-11-25T15:15:48.437Z,14.15
2022-11-25T15:21:15.479Z,16.17
2022-11-25T15:23:46.569Z,15.15
2022-11-25T15:26:29.004Z,13.07
2022-11-25T15:35:16.853Z,15.52
2022-11-25T15:37:50.596Z,20.27
2022-11-25T15:40:37.897Z,18.55
2022-11-25T15:46:11.417Z,16.65
2022-11-25T15:48:46.625Z,16.45
2022-11-25T15:57:36.236Z,15.25
2022-11-25T16:00:29.169Z,16.15
2022-11-25T16:03:00.501Z,19.58
2022-11-25T16:08:18.883Z,17.95
2022-11-25T16:10:46.763Z,17.25
2022-11-25T16:13:24.045Z,16.33
2022-11-25T16:27:39.148Z,16.73
2022-11-25T16:30:05.779Z,19.33
2022-11-25T16:32:33.725Z,14.77
2022-11-25T16:35:13.274Z,16.42
2022-11-25T16:37:44.072Z,16.33
2022-11-25T16:40:17.578Z,16.85
2022-11-25T16:42:50.980Z,15.50
2022-11-25T16:45:25.815Z,20.02
2022-11-25T16:47:53.132Z,16.85
2022-11-25T16:50:31.296Z,17.27
2022-11-25T16:52:58.396Z,15.98
2022-11-25T16:55:29.388Z,15.80
2022-11-25T17:00:24.277Z,17.30
2022-11-25T17:05:38.082Z,18.23
2022-11-25T17:08:12.033Z,24.75
2022-11-25T17:10:47.489Z,19.67
2022-11-25T17:13:53.181Z,19.77
2022-11-25T17:16:24.689Z,20.00
2022-11-25T17:18:59.513Z,16.95
2022-11-25T17:30:04.344Z,22.00
2022-11-25T17:32:39.689Z,20.20
2022-11-25T17:40:52.924Z,19.45
2022-11-25T17:43:34.854Z,24.45
2022-11-25T17:54:24.179Z,20.55
2022-11-25T17:57:00.076Z,22.27
2022-11-25T18:02:21.306Z,19.60
2022-11-25T18:04:57.537Z,17.63
2022-11-25T18:10:13.880Z,20.02
2022-11-25T18:12:57.847Z,14.90
2022-11-25T18:15:38.348Z,18.83
2022-11-25T18:21:09.309Z,16.45
2022-11-25T18:23:36.148Z,19.20
2022-11-25T18:29:11.998Z,26.13
2022-11-25T18:39:45.467Z,17.67
2022-11-25T18:42:27.646Z,18.92
2022-11-25T18:44:58.414Z,20.13
2022-11-25T18:47:26.703Z,19.10
2022-11-25T18:49:59.426Z,22.98
2022-11-25T18:52:29.366Z,17.42
2022-11-25T18:55:04.388Z,17.35
2022-11-25T19:00:32.418Z,31.13
2022-11-25T19:03:01.028Z,23.92
2022-11-25T19:05:36.275Z,20.10
2022-11-25T19:08:03.290Z,21.45
2022-11-25T19:10:41.553Z,21.63
2022-11-25T19:30:26.626Z,18.83
2022-11-25T19:33:01.007Z,19.20
2022-11-25T19:38:40.892Z,22.48
2022-11-25T20:04:02.268Z,22.83
2022-11-25T20:17:42.456Z,22.27
2022-11-25T20:23:59.543Z,25.70
2022-11-25T20:24:02.654Z,27.35
2022-11-25T20:26:50.846Z,22.95
2022-11-25T21:05:12.792Z,26.98
2022-11-25T21:14:52.296Z,45.78
2022-11-25T21:21:02.629Z,34.90
2022-11-25T21:23:52.803Z,30.83
2022-11-25T21:26:48.498Z,31.45
2022-11-25T21:29:20.815Z,27.38
2022-11-25T21:31:57.558Z,30.77
2022-11-25T21:34:28.111Z,28.35
2022-11-25T21:36:59.759Z,27.98
2022-11-25T21:39:47.489Z,27.92
2022-11-25T21:42:26.127Z,30.70
2022-11-25T21:44:56.569Z,24.77
2022-11-25T21:48:18.236Z,44.97
2022-11-25T21:50:55.006Z,24.73
2022-11-25T21:53:22.577Z,27.17
2022-11-25T21:56:26.518Z,29.83
2022-11-25T21:59:03.405Z,24.52
2022-11-25T22:01:47.534Z,31.80
2022-11-25T22:07:46.544Z,28.15
2022-11-25T22:26:44.092Z,25.98
2022-11-25T22:29:20.231Z,25.42
2022-11-25T22:32:00.012Z,24.63
2022-11-25T22:34:26.761Z,23.52
2022-11-25T22:36:56.188Z,21.92
2022-11-25T22:39:25.448Z,26.25
2022-11-25T22:42:01.497Z,25.17
2022-11-25T22:44:42.897Z,27.63
2022-11-25T22:47:27.229Z,21.58
2022-11-25T22:49:54.704Z,24.75
2022-11-25T22:52:28.786Z,40.63
2022-11-25T22:55:02.488Z,25.42
2022-11-25T22:57:29.133Z,24.70
2022-11-25T22:59:55.784Z,30.27
2022-11-25T23:02:29.808Z,24.05
2022-11-25T23:04:56.847Z,27.95
2022-11-25T23:07:23.960Z,26.73
2022-11-25T23:09:50.835Z,25.63
2022-11-25T23:12:18.281Z,124.20
2022-11-25T23:14:45.014Z,31.38
2022-11-25T23:17:21.859Z,30.00
2022-11-25T23:19:49.952Z,27.88
2022-11-25T23:22:17.210Z,32.85
2022-11-25T23:24:46.393Z,29.48
2022-11-25T23:27:13.718Z,28.02
2022-11-25T23:29:42.591Z,26.88
2022-11-25T23:32:18.557Z,26.42
2022-11-25T23:34:45.658Z,26.63
2022-11-25T23:37:13.776Z,28.00
2022-11-25T23:39:40.672Z,27.95
2022-11-25T23:42:18.392Z,31.50
2022-11-25T23:44:45.491Z,26.80
2022-11-25T23:47:18.943Z,32.63
2022-11-25T23:49:52.152Z,38.15
2022-11-25T23:52:26.652Z,25.88
2022-11-25T23:54:54.355Z,33.25
2022-11-25T23:57:31.223Z,34.17
2022-11-25T23:59:58.526Z,26.13
